Peter Schäfer

Olheiro-Chefe - Hamburger SV
5 Mar 2028
Domingo
Processo

Personalidade

Adaptabilidade (7) Ambição (1) Controvérsia (5) Lealdade (19) Pressão (19) Profissionalismo (3) Espírito Esportivo (9) Temperamento (15)

Perfil

Estilo de Treinamento Democrático
Licença Nacional A
Determinação 11
Gestão de Pessoas 9
Motivação 9
Disciplina 12
Satisfação no Trabalho
100%
Fadiga
0%
Função Olheiro-Chefe
Salário 83.3K p/s
Contrato 14.03.2030

Desempenho

Comportamento Bom
Eficácia do Treinamento
61%
Desenvolvimento do Jogador
35%
Prevenção de Lesões
50%
Implementação Tática
60%

Eventos Recentes

Avaliou um jogador 28d atrás
Participou de uma reunião de recrutamento 28d atrás
Recomendou um alvo de transferência 28d atrás
Recomendou um alvo de transferência 28d atrás
Recomendou um alvo de transferência 35d atrás
Recomendou um alvo de transferência 35d atrás
Apresentou um dossiê à direção 35d atrás
Observou uma partida 35d atrás

Monitorando agora

152
Jogador Clube Status Habilidade Confiança Observado Última observação Último voto
Alejandro Iturbe Elche Perdido 131 / 133 40% 2 31.01.2028 -
Christos Mandas Lazio Ativo 144 / 148 40% 1 31.01.2028 -
Sebastián Meza Huracán Ativo 128 / 126 40% 1 31.01.2028 -
James Trafford Leeds United Ativo 153 / 155 40% 1 24.01.2028 -
Max Weiß Burnley Perdido 139 / 145 40% 1 24.01.2028 -
De Lucca SC Freiburg Ativo 128 / 121 69% 1 17.01.2028 Aprovar
Jonmi Magunagoitia Eibar Ativo 141 / 139 40% 1 10.01.2028 -
Josh Keeley Luton Town Perdido 139 / 137 40% 1 10.01.2028 -
John Pulskamp Sporting Kansas City Perdido 125 / 118 40% 1 10.01.2028 -
Assane Diao Como Ativo 156 / 149 40% 1 01.01.2028 -
Wilfried Gnonto Leeds United Ativo 146 / 145 40% 1 01.01.2028 -
Jonas Harder Basel Ativo 109 / 125 40% 1 30.08.2027 -
Luca Bombino San Diego Football Club Ativo 99 / 114 40% 1 30.08.2027 -
Raphael Posch Mattersburg Ativo 115 / 117 40% 1 30.08.2027 -
Frederik Ihler IF Elfsborg Ativo 106 / 111 40% 1 30.08.2027 -
Róyner Benítez Aguilas Doradas Ativo 107 / 113 40% 1 30.08.2027 -
Felipe Faúndez O'Higgins Ativo 100 / 101 40% 1 28.08.2027 -
Lucas Bergvall Tottenham Ativo 152 / 156 40% 1 28.08.2027 -
Ibrahim Maza Bayer Leverkusen Ativo 158 / 161 40% 1 28.08.2027 -
Mohamed Moussa Koïta Persijap Ativo 100 / 107 40% 3 27.08.2027 -
Luka Vušković Brighton Ativo 147 / 155 40% 1 27.08.2027 -
Sebastián Arancibia Universidad Catolica Ativo 111 / 114 40% 1 26.08.2027 -
Jorrel Hato Chelsea Ativo 151 / 156 40% 1 26.08.2027 -
Luis Otávio Sporting Kansas City Ativo 120 / 115 40% 1 26.08.2027 -
Facundo Balatti Fenix Ativo 100 / 113 40% 1 22.08.2027 -
Nicolas America Mineiro Ativo 109 / 113 40% 2 21.08.2027 -
Abdoul Djire Ararat Ativo 94 / 106 40% 1 21.08.2027 -
Harbor Miller LA Galaxy Ativo 95 / 94 40% 1 21.08.2027 -
Alexis Fretes Libertad Ativo 110 / 111 40% 2 20.08.2027 -
Philipp Maybach Austria Wien Ativo 109 / 116 40% 2 18.08.2027 -
Jussef Nasrawe SV Ried Ativo 103 / 108 40% 1 18.08.2027 -
Florent Hajdini Wolfsberger AC Ativo 96 / 102 40% 1 18.08.2027 -
Azizbek To'lqinbekov Sogdiana Ativo 86 / 111 40% 3 15.08.2027 -
Abdoulie Tamba GIF Sundsvall Ativo 103 / 100 40% 2 15.08.2027 -
Mio Zimmermann Luzern Ativo 98 / 110 40% 1 14.08.2027 -
Lautaro Dufur Rentistas Ativo 93 / 107 40% 1 13.08.2027 -
Marwin Schmitz St. Pauli Ativo 96 / 105 40% 1 13.08.2027 -
Mathys Angély VfL Wolfsburg Ativo 117 / 117 40% 1 12.08.2027 -
Petik Manukyan Urartu Ativo 96 / 102 40% 1 11.08.2027 -
George Abbott Tottenham Ativo 120 / 122 40% 1 11.08.2027 -
Bahia Santos Ativo 111 / 123 40% 1 10.08.2027 -
Sinclair Armstrong Bristol City Ativo 120 / 125 40% 2 09.08.2027 -
Kevin Kelsy Portland Timbers Ativo 121 / 123 40% 2 09.08.2027 -
Andrik Markgraf Union Berlin Ativo 99 / 110 40% 1 07.08.2027 -
Gustavo Albarracín Alavés Ativo 118 / 124 40% 1 07.08.2027 -
Martim Cunha Porto Ativo 101 / 108 40% 2 05.08.2027 -
Valentin Atangana Al-Ahli Ativo 145 / 132 40% 5 03.08.2027 -
Alex Tóth Bournemouth Ativo 129 / 131 40% 2 02.08.2027 -
Luis Palacios Tigres Ativo 105 / 109 40% 2 01.08.2027 -
Will Lankshear Middlesbrough Ativo 130 / 124 40% 5 30.07.2027 -
Archie Goodwin Charlotte Football Club Ativo 99 / 101 40% 1 29.07.2027 -
Alexandre Duville-Parsemain Moreirense Ativo 118 / 114 40% 2 28.07.2027 -
Rody Junior Effaghe Aris Ativo 101 / 103 40% 3 27.07.2027 -
Conrad Harder RB Leipzig Ativo 150 / 145 40% 1 27.07.2027 -
Abdoulie Ceesay St. Pauli Ativo 114 / 118 40% 6 26.07.2027 -
Denys Smetana Metalurh Zaporizhzhia Ativo 102 / 111 40% 3 26.07.2027 -
Juan Manuel Villalba Estudiantes Ativo 110 / 124 40% 1 26.07.2027 -
Destiny Efosa Egharevba Picerno Ativo 105 / 107 40% 2 25.07.2027 -
Vasyl Bundash Metalurh Zaporizhzhia Ativo 105 / 115 40% 4 23.07.2027 -
Gadiel Paoli General Caballero Ativo 92 / 97 40% 1 23.07.2027 -
Amir Mohammad Razzaghinia Esteghlal Ativo 125 / 121 40% 1 22.07.2027 -
Dženan Pejčinović VfB Stuttgart Ativo 122 / 126 40% 5 20.07.2027 -
Filipe Gabriel Depor Ativo 92 / 94 40% 2 19.07.2027 -
Jacopo Desogus AlbinoLeffe Ativo 99 / 102 40% 2 19.07.2027 -
Jacob Peter Hödl Sturm Graz Ativo 119 / 126 40% 1 19.07.2027 -
Hilmir Rafn Mikaelsson Sigma Olomouc Ativo 122 / 119 40% 1 15.07.2027 -
Arkaitz Mariezkurrena Real Sociedad Ativo 114 / 128 40% 2 14.07.2027 -
Lars Villiger Luzern Ativo 114 / 118 40% 3 12.07.2027 -
Eguinaldo Shakhtar Ativo 147 / 143 40% 1 12.07.2027 -
Moctar Diop KAA Gent Ativo 118 / 124 40% 5 11.07.2027 -
Peter Itodo Metalist Ativo 119 / 109 40% 2 11.07.2027 -
Thomas Kastanaras FC Augsburg Ativo 114 / 114 40% 3 10.07.2027 -
García Pascual Cádiz Ativo 129 / 121 40% 4 07.07.2027 -
Rafiu Durosinmi Racing Genk Ativo 128 / 136 40% 3 07.07.2027 -
Maurits Kjærgaard Red Bull Salzburg Ativo 136 / 134 40% 5 05.07.2027 Observar
Tyreece Campbell Charlton Athletic Ativo 119 / 119 40% 3 05.07.2027 -
Moussa Yeo Swansea City Ativo 116 / 126 40% 1 27.06.2027 -
Youssuf Sylla Jagiellonia Ativo 107 / 119 40% 1 26.06.2027 -
Daniel Vernattus Metalist Ativo 99 / 107 40% 1 24.06.2027 -
Mohamadou Kanté West Ham United Ativo 122 / 125 40% 1 24.06.2027 -
Sanel Šaljić Austria Wien Ativo 110 / 129 40% 1 23.06.2027 -
Paulo Cardoso Sporting CP Ativo 95 / 98 40% 2 22.06.2027 -
Ian Wisdom Sporting Cristal Ativo 103 / 107 40% 4 22.06.2027 -
Joel Medina Osasuna Ativo 108 / 126 40% 2 20.06.2027 -
Louis Page West Ham United Ativo 123 / 134 40% 2 19.06.2027 -
Saïmon Bouabré Al-Hilal Ativo 139 / 131 40% 4 18.06.2027 -
Matheus Gonçalves Al-Ahli Ativo 125 / 126 40% 1 18.06.2027 -
Noah Streit CF Montreal Ativo 106 / 108 40% 1 16.06.2027 -
Axel Tape TSG Hoffenheim Ativo 131 / 130 40% 3 14.06.2027 -
Patrick Mainka Heidenheim Ativo 139 / 140 69% 1 14.06.2027 Aprovar
Bertuğ Yıldırım Basaksehir Ativo 133 / 119 40% 1 08.06.2027 -
Petter Nosa Dahl Rapid Wien Ativo 119 / 126 40% 3 06.06.2027 -
Giorgi Kvernadze Frosinone Ativo 119 / 119 40% 1 06.06.2027 -
Olívio Tomé Benfica Ativo 103 / 117 40% 2 05.06.2027 -
Juan-José Perea Zurich Ativo 115 / 125 40% 3 28.01.2027 -
Richard Koné Queens Park Rangers Ativo 129 / 121 40% 2 28.01.2027 -
Ousmane Camara Castellón Ativo 123 / 119 40% 1 28.01.2027 -
Álex Forés Burgos Ativo 129 / 131 40% 2 27.01.2027 -
Meschack Elia Alanyaspor Ativo 129 / 111 40% 2 27.01.2027 -
Keita Kosugi Eintracht Frankfurt Ativo 117 / 135 40% 1 26.01.2027 -
Lautaro Vargas Unión de Santa Fe Ativo 117 / 123 40% 2 25.01.2027 -
Honest Ahanor Udinese Ativo 133 / 139 40% 1 25.01.2027 -
Davis Keillor-Dunn Wrexham Ativo 122 / 121 40% 1 23.01.2027 -
Hugo Cuypers Monterrey Ativo 137 / 125 40% 1 23.01.2027 -
Santiago Sosa Yung Valencia Ativo 114 / 131 40% 1 23.01.2027 -
Duvan Giraldo Cortulua Ativo 133 / 139 40% 1 23.01.2027 -
Diber Cambindo Leon Ativo 138 / 132 40% 5 21.01.2027 -
Arthur Cabral Botafogo Ativo 138 / 128 40% 1 21.01.2027 -
Egas Cacintura Akhmat Grozny Ativo 129 / 131 40% 1 20.01.2027 -
Claudio Spinelli Vasco da Gama Ativo 128 / 122 40% 1 18.01.2027 -
Donis Avdijaj Wolfsberger AC Ativo 114 / 115 40% 1 16.01.2027 -
Hwang Hee-Chan Wolverhampton Ativo 142 / 136 40% 1 16.01.2027 -
Marezi Portsmouth Ativo 112 / 128 40% 3 15.01.2027 -
Yorbe Vertessen Red Bull Salzburg Ativo 122 / 127 40% 3 13.01.2027 -
Samuel Essende Young Boys Ativo 130 / 131 40% 2 09.01.2027 -
Bojan Radulović Huddersfield Town Ativo 114 / 115 40% 1 09.01.2027 -
Joaquin Seys Club Brugge Ativo 120 / 133 40% 1 07.01.2027 -
Oscar Kabwit Luzern Ativo 109 / 118 40% 1 06.01.2027 -
Ruan Alanyaspor Ativo 134 / 120 40% 1 06.01.2027 -
Diego Rossi Monterrey Ativo 131 / 127 40% 1 31.08.2026 Mais informações
João Klauss LA Galaxy Ativo 138 / 125 40% 1 30.08.2026 -
Timo Werner San Jose Earthquakes Ativo 136 / 118 40% 2 29.08.2026 -
Dani Raba Valencia Ativo 137 / 134 40% 1 29.08.2026 -
Jaydee Canvot Crystal Palace Ativo 124 / 139 40% 2 28.08.2026 -
Miguel Merentiel Boca Juniors Ativo 139 / 126 40% 2 28.08.2026 -
Agustín Módica Gimnasia y Esgrima Ativo 111 / 124 40% 2 26.08.2026 -
Indiana Vassilev Philadelphia Union Ativo 106 / 117 40% 1 26.08.2026 -
Leonardo Campana New England Revolution Ativo 133 / 126 40% 1 25.08.2026 -
Matteo di Giusto Luzern Ativo 120 / 129 40% 2 23.08.2026 -
Oli McBurnie Hull City Ativo 126 / 137 40% 1 23.08.2026 -
Rilind Nivokazi Sion Ativo 115 / 115 40% 3 21.08.2026 -
Everardo López Toluca Ativo 125 / 123 40% 1 21.08.2026 -
Philippe Keny Zurich Ativo 126 / 118 40% 3 18.08.2026 -
Ilyas Chouaref Sion Ativo 127 / 121 40% 1 18.08.2026 -
Morgan Guilavogui Real Salt Lake Ativo 131 / 119 40% 1 16.08.2026 -
Josias Lukembila Sion Ativo 117 / 122 40% 1 15.08.2026 -
Ibrahim Salah Basel Ativo 118 / 119 40% 1 15.08.2026 -
Caleb Yirenkyi Coventry City Ativo 135 / 133 40% 1 15.08.2026 -
Veljko Milosavljević Bournemouth Ativo 120 / 139 40% 1 15.08.2026 -
Furkan Demir Rapid Wien Ativo 121 / 129 40% 1 14.08.2026 -
Samuel Marques Grasshopper Ativo 108 / 117 40% 1 14.08.2026 -
Alexey Miranchuk Atlanta United FC Ativo 153 / 135 40% 2 12.08.2026 -
Fodé Sylla Sion Ativo 115 / 123 40% 1 12.08.2026 -
Luca Orellano Monterrey Ativo 124 / 136 40% 1 10.08.2026 -
Pep Biel Charlotte Football Club Ativo 140 / 125 40% 1 09.08.2026 -
Mohamed Bangoura Zurich Ativo 95 / 100 40% 1 07.08.2026 -
Leo Sauer VfB Stuttgart Ativo 124 / 131 40% 1 07.08.2026 -
Edmund Baidoo Red Bull Salzburg Ativo 113 / 123 40% 1 07.08.2026 -
Jesus Ferreira Seattle Sounders Ativo 131 / 133 40% 1 05.08.2026 -
Tim Lemperle TSG Hoffenheim Ativo 139 / 134 40% 1 05.08.2026 -
Arjan Malić Sturm Graz Ativo 113 / 122 40% 1 04.08.2026 -
Julian von Moos Grasshopper Ativo 106 / 120 40% 1 01.08.2026 -